Time;durP1;ratioP1;P1;durP2;ratioP2;P2;SDS_P1;SDS_P2;PMS_P1;PMS_P2;Temp;Humidity;BMP_temperature;BMP_pressure;BME280_temperature;BME280_humidity;BME280_pressure;Samples;Min_cycle;Max_cycle;Signal;HPM_P1;HPM_P2
2022/04/13 00:02:21;;;;;;;14.48;7.35;;;;;;;9.90;nan;95294.78;5015793;28;20297;-71
2022/04/13 00:04:48;;;;;;;13.07;7.97;;;;;;;9.86;nan;95293.22;5014260;28;20208;-72
2022/04/13 00:07:16;;;;;;;14.57;7.93;;;;;;;10.11;nan;95301.00;5015999;28;20753;-72
2022/04/13 00:09:42;;;;;;;13.25;7.53;;;;;;;9.78;nan;95295.13;5015160;28;20207;-71
2022/04/13 00:12:10;;;;;;;17.42;8.95;;;;;;;9.91;nan;95286.28;5012176;28;20231;-71
2022/04/13 00:14:37;;;;;;;13.43;7.85;;;;;;;9.76;nan;95287.56;5014391;28;20301;-71
2022/04/13 00:17:04;;;;;;;15.45;8.80;;;;;;;9.64;nan;95284.53;5015849;28;20253;-71
2022/04/13 00:19:31;;;;;;;16.23;9.30;;;;;;;9.56;nan;95289.78;5015082;28;20235;-74
2022/04/13 00:21:58;;;;;;;11.43;7.65;;;;;;;9.57;nan;95283.00;5015611;28;20203;-74
2022/04/13 00:24:26;;;;;;;12.20;7.63;;;;;;;9.30;nan;95298.06;5015096;28;20303;-72
2022/04/13 00:26:53;;;;;;;10.38;6.53;;;;;;;9.15;nan;95289.13;5015951;28;20199;-73
2022/04/13 00:29:20;;;;;;;11.00;7.30;;;;;;;9.31;nan;95292.13;5015136;28;20208;-72
2022/04/13 00:31:47;;;;;;;16.73;7.68;;;;;;;9.07;nan;95274.97;5016041;28;20207;-73
2022/04/13 00:34:14;;;;;;;13.73;7.70;;;;;;;9.32;nan;95288.72;5016030;28;20583;-71
2022/04/13 00:36:40;;;;;;;10.43;7.82;;;;;;;9.46;nan;95299.31;5013553;28;20999;-72
2022/04/13 00:39:07;;;;;;;10.55;7.70;;;;;;;-142.91;100.00;56616.03;5013917;28;20207;-72
2022/04/13 00:41:35;;;;;;;14.90;8.23;;;;;;;-142.91;100.00;56616.03;5012851;28;20947;-71
2022/04/13 00:44:04;;;;;;;10.75;7.63;;;;;;;-142.91;100.00;56616.03;5015301;28;20208;-72
2022/04/13 00:46:31;;;;;;;9.65;6.97;;;;;;;-142.91;100.00;56616.03;5016128;28;20210;-72
2022/04/13 00:49:00;;;;;;;14.77;7.63;;;;;;;-142.91;100.00;56616.03;5013543;28;20214;-71
2022/04/13 00:51:27;;;;;;;12.07;7.88;;;;;;;-142.91;100.00;56616.03;5018794;28;20195;-71
2022/04/13 00:53:57;;;;;;;11.43;6.82;;;;;;;-142.91;100.00;56616.03;5019446;28;20306;-71
2022/04/13 00:56:25;;;;;;;9.88;7.55;;;;;;;-142.91;100.00;56616.03;5019253;28;20207;-73
2022/04/13 00:58:56;;;;;;;11.07;6.68;;;;;;;-142.91;100.00;56616.03;5019240;28;20199;-73
2022/04/13 01:01:25;;;;;;;12.65;8.27;;;;;;;-142.91;100.00;56616.03;5019499;28;20241;-71
2022/04/13 01:03:53;;;;;;;10.77;6.90;;;;;;;-142.91;100.00;56616.03;5019857;28;20203;-70
2022/04/13 01:06:21;;;;;;;10.65;7.65;;;;;;;-142.91;100.00;56616.03;5019458;28;20204;-72
2022/04/13 01:08:50;;;;;;;9.75;7.35;;;;;;;-142.91;100.00;56616.03;5019679;28;20672;-73
2022/04/13 01:11:17;;;;;;;11.65;7.57;;;;;;;-142.91;100.00;56616.03;5018690;28;20204;-72
2022/04/13 01:13:44;;;;;;;18.17;8.23;;;;;;;-142.91;100.00;56616.03;5019610;28;20293;-71
2022/04/13 01:16:13;;;;;;;8.55;7.40;;;;;;;-142.91;100.00;56616.03;5017850;28;20278;-70
2022/04/13 01:18:40;;;;;;;13.23;8.52;;;;;;;-142.91;100.00;56616.03;5019081;28;20207;-71
2022/04/13 01:21:12;;;;;;;12.38;8.40;;;;;;;-142.91;100.00;56616.03;5018286;28;20780;-72
2022/04/13 01:23:40;;;;;;;16.15;8.43;;;;;;;-142.91;100.00;56616.03;5019363;28;20199;-72
2022/04/13 01:26:11;;;;;;;17.20;8.25;;;;;;;-142.91;100.00;56616.03;5018407;28;20294;-71
2022/04/13 01:28:38;;;;;;;14.15;7.53;;;;;;;-142.91;100.00;56616.03;5017209;28;20204;-70
2022/04/13 01:31:04;;;;;;;12.30;8.07;;;;;;;-142.91;100.00;56616.03;5017538;28;20207;-70
2022/04/13 01:33:32;;;;;;;10.18;6.40;;;;;;;-142.91;100.00;56616.03;5018346;28;20261;-71
2022/04/13 01:36:01;;;;;;;15.25;7.55;;;;;;;-142.91;100.00;56616.03;5018652;28;20257;-73
2022/04/13 01:38:28;;;;;;;11.02;7.25;;;;;;;-142.91;100.00;56616.03;5015947;28;20285;-71
2022/04/13 01:40:58;;;;;;;9.25;7.10;;;;;;;-142.91;100.00;56616.03;5017361;28;20666;-71
2022/04/13 01:43:25;;;;;;;16.33;7.78;;;;;;;-142.91;100.00;56616.03;5016840;28;20218;-72
2022/04/13 01:45:53;;;;;;;12.05;8.70;;;;;;;-142.91;100.00;56616.03;5018883;28;20334;-71
2022/04/13 01:48:20;;;;;;;12.70;8.30;;;;;;;-142.91;100.00;56616.03;5017578;28;20191;-73
2022/04/13 01:50:47;;;;;;;15.60;9.15;;;;;;;-142.91;100.00;56616.03;4999948;28;20669;-75
2022/04/13 01:53:14;;;;;;;11.13;7.75;;;;;;;-142.91;100.00;56616.03;5018464;28;20207;-74
2022/04/13 01:55:40;;;;;;;11.50;7.40;;;;;;;-142.91;100.00;56616.03;5018158;28;20286;-74
2022/04/13 01:58:09;;;;;;;12.63;8.13;;;;;;;-142.91;100.00;56616.03;5018085;28;20270;-73
2022/04/13 02:00:36;;;;;;;12.85;8.45;;;;;;;-142.91;100.00;56616.03;4999431;28;20227;-72
2022/04/13 02:03:03;;;;;;;10.43;8.52;;;;;;;-142.91;100.00;56616.03;5017340;28;20211;-75
2022/04/13 02:05:31;;;;;;;11.07;7.53;;;;;;;-142.91;100.00;56616.03;5018208;28;20219;-77
2022/04/13 02:07:58;;;;;;;14.35;7.45;;;;;;;-142.91;100.00;56616.03;5018571;28;20204;-77
2022/04/13 02:10:24;;;;;;;13.52;7.90;;;;;;;-142.91;100.00;56616.03;5015520;28;20346;-75
2022/04/13 02:12:52;;;;;;;10.68;7.65;;;;;;;-142.91;100.00;56616.03;5017462;28;20232;-75
2022/04/13 02:15:20;;;;;;;9.45;7.30;;;;;;;-142.91;100.00;56616.03;5016978;28;20224;-76
2022/04/13 02:17:47;;;;;;;19.98;7.60;;;;;;;-142.91;100.00;56616.03;5015983;28;20200;-76
2022/04/13 02:20:14;;;;;;;8.68;7.35;;;;;;;-142.91;100.00;56616.03;5016557;28;20266;-75
2022/04/13 02:22:44;;;;;;;11.13;6.40;;;;;;;-142.91;100.00;56616.03;5016393;28;20608;-76
2022/04/13 02:25:11;;;;;;;10.43;7.57;;;;;;;-142.91;100.00;56616.03;5017974;28;20786;-76
2022/04/13 02:27:38;;;;;;;16.92;7.45;;;;;;;-142.91;100.00;56616.03;5018063;28;20199;-76
2022/04/13 02:30:06;;;;;;;14.50;7.15;;;;;;;-142.91;100.00;56616.03;5017937;28;20208;-75
2022/04/13 02:32:37;;;;;;;11.85;8.15;;;;;;;-142.91;100.00;56616.03;5017734;28;20204;-75
2022/04/13 02:35:05;;;;;;;18.23;8.05;;;;;;;-142.91;100.00;56616.03;5018515;28;20196;-76
2022/04/13 02:37:32;;;;;;;9.13;7.03;;;;;;;-142.91;100.00;56616.03;5017054;28;20278;-76
2022/04/13 02:39:58;;;;;;;10.40;7.07;;;;;;;-142.91;100.00;56616.03;5017307;28;20213;-76
2022/04/13 02:42:25;;;;;;;9.52;6.88;;;;;;;-142.91;100.00;56616.03;5017571;28;20277;-77
2022/04/13 02:44:53;;;;;;;13.15;6.35;;;;;;;-142.91;100.00;56616.03;5017879;28;20318;-76
2022/04/13 02:47:20;;;;;;;9.48;6.88;;;;;;;-142.91;100.00;56616.03;5017310;28;20207;-76
2022/04/13 02:49:48;;;;;;;12.48;7.28;;;;;;;-142.91;100.00;56616.03;5017006;28;20265;-76
2022/04/13 02:52:14;;;;;;;15.45;6.68;;;;;;;-142.91;100.00;56616.03;5017070;28;20898;-76
2022/04/13 02:54:41;;;;;;;9.20;6.80;;;;;;;-142.91;100.00;56616.03;5018116;28;20207;-77
2022/04/13 02:57:09;;;;;;;10.73;6.95;;;;;;;-142.91;100.00;56616.03;5017344;28;20358;-76
2022/04/13 02:59:36;;;;;;;9.27;7.13;;;;;;;-142.91;100.00;56616.03;5017398;28;20265;-76
2022/04/13 03:02:04;;;;;;;12.00;7.28;;;;;;;-142.91;100.00;56616.03;5016299;28;20801;-76
2022/04/13 03:04:32;;;;;;;13.30;6.50;;;;;;;-142.91;100.00;56616.03;5016963;28;20639;-76
2022/04/13 03:07:00;;;;;;;7.32;5.50;;;;;;;-142.91;100.00;56616.03;5017301;28;20238;-77
2022/04/13 03:09:27;;;;;;;11.45;6.28;;;;;;;-142.91;100.00;56616.03;5017282;28;20204;-76
2022/04/13 03:11:53;;;;;;;9.07;6.50;;;;;;;-142.91;100.00;56616.03;5017547;28;20270;-76
2022/04/13 03:14:23;;;;;;;13.95;6.63;;;;;;;-142.91;100.00;56616.03;5017143;28;20231;-75
2022/04/13 03:16:50;;;;;;;10.32;5.93;;;;;;;-142.91;100.00;56616.03;5017205;28;20745;-76
2022/04/13 03:19:17;;;;;;;8.48;6.43;;;;;;;-142.91;100.00;56616.03;5016799;28;20208;-76
2022/04/13 03:21:43;;;;;;;10.40;7.20;;;;;;;-142.91;100.00;56616.03;5016462;28;20231;-76
2022/04/13 03:24:12;;;;;;;11.68;6.70;;;;;;;-142.91;100.00;56616.03;5014837;28;20216;-76
2022/04/13 03:26:38;;;;;;;16.92;6.65;;;;;;;-142.91;100.00;56616.03;5017097;28;20204;-77
2022/04/13 03:29:05;;;;;;;11.38;6.22;;;;;;;-142.91;100.00;56616.03;5015992;28;20323;-75
2022/04/13 03:31:32;;;;;;;7.03;6.35;;;;;;;-142.91;100.00;56616.03;5015771;28;20208;-76
2022/04/13 03:33:59;;;;;;;12.02;6.25;;;;;;;-142.91;100.00;56616.03;5017585;28;20215;-76
2022/04/13 03:36:25;;;;;;;11.93;6.22;;;;;;;-142.91;100.00;56616.03;5016587;28;20857;-76
2022/04/13 03:38:52;;;;;;;26.95;15.40;;;;;;;-142.91;100.00;56616.03;5015981;28;20203;-76
2022/04/13 03:41:21;;;;;;;31.10;16.52;;;;;;;-142.91;100.00;56616.03;5015939;28;20313;-76
2022/04/13 03:43:48;;;;;;;34.03;17.33;;;;;;;-142.91;100.00;56616.03;5015301;28;20204;-75
2022/04/13 03:46:15;;;;;;;40.40;18.80;;;;;;;-142.91;100.00;56616.03;5012399;28;20270;-76
2022/04/13 03:48:42;;;;;;;27.63;16.60;;;;;;;-142.91;100.00;56616.03;5016544;28;20203;-76
2022/04/13 03:51:09;;;;;;;26.33;12.50;;;;;;;-142.91;100.00;56616.03;5016464;28;20203;-75
2022/04/13 03:53:36;;;;;;;15.70;7.93;;;;;;;-142.91;100.00;56616.03;5015545;28;20203;-75
2022/04/13 03:56:03;;;;;;;14.48;6.78;;;;;;;-142.91;100.00;56616.03;5016624;28;20258;-74
2022/04/13 03:58:32;;;;;;;10.52;6.72;;;;;;;-142.91;100.00;56616.03;5014208;28;20211;-76
2022/04/13 04:00:59;;;;;;;17.77;7.47;;;;;;;-142.91;100.00;56616.03;5015393;28;21134;-76
2022/04/13 04:03:25;;;;;;;16.52;6.55;;;;;;;-142.91;100.00;56616.03;5017062;28;20203;-76
2022/04/13 04:05:52;;;;;;;11.90;6.38;;;;;;;-142.91;100.00;56616.03;5015075;28;20203;-75
2022/04/13 04:08:19;;;;;;;10.23;6.22;;;;;;;-142.91;100.00;56616.03;5017046;28;20204;-77
2022/04/13 04:10:46;;;;;;;27.05;16.02;;;;;;;-142.91;100.00;56616.03;5015453;28;20208;-77
2022/04/13 04:13:12;;;;;;;15.55;9.95;;;;;;;-142.91;100.00;56616.03;5015992;28;20246;-77
2022/04/13 04:15:41;;;;;;;14.55;6.47;;;;;;;-142.91;100.00;56616.03;5015598;28;20269;-77
2022/04/13 04:18:07;;;;;;;6.85;5.38;;;;;;;-142.91;100.00;56616.03;5016340;28;20207;-77
2022/04/13 04:20:34;;;;;;;13.98;6.30;;;;;;;-142.91;100.00;56616.03;5015754;28;20203;-76
2022/04/13 04:23:01;;;;;;;8.05;6.63;;;;;;;-142.91;100.00;56616.03;5016423;28;20628;-76
2022/04/13 04:25:28;;;;;;;9.85;5.32;;;;;;;-142.91;100.00;56616.03;5015683;28;20647;-76
2022/04/13 04:27:54;;;;;;;7.82;6.50;;;;;;;-142.91;100.00;56616.03;5015965;28;20574;-76
2022/04/13 04:30:21;;;;;;;12.82;7.05;;;;;;;-142.91;100.00;56616.03;5015974;28;20203;-77
2022/04/13 04:32:49;;;;;;;14.68;7.15;;;;;;;-142.91;100.00;56616.03;5016085;28;21279;-76
2022/04/13 04:35:16;;;;;;;19.25;9.70;;;;;;;-142.91;100.00;56616.03;5016178;28;20204;-76
2022/04/13 04:37:43;;;;;;;14.30;9.98;;;;;;;-142.91;100.00;56616.03;5016224;28;20204;-75
2022/04/13 04:40:11;;;;;;;19.23;9.85;;;;;;;-142.91;100.00;56616.03;5015822;28;20207;-76
2022/04/13 04:42:47;;;;;;;37.80;19.88;;;;;;;-142.91;100.00;56616.03;5015488;28;20284;-75
2022/04/13 04:45:16;;;;;;;20.15;9.10;;;;;;;-142.91;100.00;56616.03;5016048;28;20663;-75
2022/04/13 04:47:44;;;;;;;35.20;13.70;;;;;;;-142.91;100.00;56616.03;5016201;28;20211;-75
2022/04/13 04:50:12;;;;;;;13.65;8.25;;;;;;;-142.91;100.00;56616.03;5012477;28;20261;-76
2022/04/13 04:52:41;;;;;;;19.80;9.45;;;;;;;-142.91;100.00;56616.03;5014103;28;20200;-74
2022/04/13 04:55:09;;;;;;;15.18;9.07;;;;;;;-142.91;100.00;56616.03;5013126;28;20709;-76
2022/04/13 04:57:36;;;;;;;11.77;8.48;;;;;;;-142.91;100.00;56616.03;5013596;28;20199;-77
2022/04/13 05:00:04;;;;;;;15.15;7.90;;;;;;;-142.91;100.00;56616.03;5014250;28;21087;-77
2022/04/13 05:02:31;;;;;;;11.52;7.90;;;;;;;-142.91;100.00;56616.03;5014557;28;20277;-75
2022/04/13 05:04:57;;;;;;;9.90;8.90;;;;;;;-142.91;100.00;56616.03;5013109;28;20204;-75
2022/04/13 05:07:28;;;;;;;17.35;8.65;;;;;;;-142.91;100.00;56616.03;5013576;28;20317;-76
2022/04/13 05:09:55;;;;;;;15.75;7.38;;;;;;;-142.91;100.00;56616.03;5015212;28;20697;-77
2022/04/13 05:12:22;;;;;;;17.92;8.43;;;;;;;-142.91;100.00;56616.03;5016044;28;20228;-75
2022/04/13 05:14:48;;;;;;;19.85;8.70;;;;;;;-142.91;100.00;56616.03;5015986;28;20210;-75
2022/04/13 05:17:16;;;;;;;9.95;7.50;;;;;;;-142.91;100.00;56616.03;5014613;28;20833;-75
2022/04/13 05:19:43;;;;;;;14.25;7.85;;;;;;;-142.91;100.00;56616.03;5015714;28;20207;-75
2022/04/13 05:22:09;;;;;;;14.25;8.43;;;;;;;-142.91;100.00;56616.03;5014743;28;20657;-77
2022/04/13 05:24:37;;;;;;;12.02;7.95;;;;;;;-142.91;100.00;56616.03;5016128;28;21072;-76
2022/04/13 05:27:04;;;;;;;14.20;8.50;;;;;;;-142.91;100.00;56616.03;5016030;28;20709;-76
2022/04/13 05:29:31;;;;;;;13.18;8.52;;;;;;;-142.91;100.00;56616.03;5015918;28;20212;-78
2022/04/13 05:31:58;;;;;;;16.00;8.50;;;;;;;-142.91;100.00;56616.03;5015115;28;20212;-76
2022/04/13 05:34:25;;;;;;;9.05;8.20;;;;;;;-142.91;100.00;56616.03;5016472;28;20204;-76
2022/04/13 05:36:51;;;;;;;15.00;8.13;;;;;;;-142.91;100.00;56616.03;5018589;28;20204;-76
2022/04/13 05:39:18;;;;;;;16.75;9.07;;;;;;;-142.91;100.00;56616.03;5020288;28;20200;-76
2022/04/13 05:41:46;;;;;;;13.55;8.45;;;;;;;-142.91;100.00;56616.03;5018920;28;20264;-76
2022/04/13 05:44:13;;;;;;;12.60;8.48;;;;;;;-142.91;100.00;56616.03;5019737;28;20214;-78
2022/04/13 05:46:40;;;;;;;8.88;7.45;;;;;;;-142.91;100.00;56616.03;5018146;28;20226;-75
2022/04/13 05:49:06;;;;;;;9.68;7.38;;;;;;;-142.91;100.00;56616.03;5017874;28;20620;-76
2022/04/13 05:51:33;;;;;;;9.30;7.00;;;;;;;-142.91;100.00;56616.03;5018221;28;20258;-77
2022/04/13 05:54:00;;;;;;;14.15;6.93;;;;;;;-142.91;100.00;56616.03;5017632;28;20631;-78
2022/04/13 05:56:27;;;;;;;10.98;6.78;;;;;;;-142.91;100.00;56616.03;5016516;28;20655;-77
2022/04/13 05:58:55;;;;;;;6.95;6.10;;;;;;;-142.91;100.00;56616.03;5018161;28;20207;-74
2022/04/13 06:01:21;;;;;;;9.52;6.25;;;;;;;-142.91;100.00;56616.03;5016046;28;20231;-75
2022/04/13 06:03:48;;;;;;;10.00;6.72;;;;;;;-142.91;100.00;56616.03;5017860;28;21107;-73
2022/04/13 06:06:15;;;;;;;12.75;7.07;;;;;;;-142.91;100.00;56616.03;5018861;28;20269;-74
2022/04/13 06:08:42;;;;;;;11.23;7.38;;;;;;;-142.91;100.00;56616.03;5018714;28;20204;-74
2022/04/13 06:11:09;;;;;;;10.60;7.05;;;;;;;-142.91;100.00;56616.03;5018770;28;20688;-76
2022/04/13 06:13:36;;;;;;;11.55;7.30;;;;;;;-142.91;100.00;56616.03;5019268;28;20794;-75
2022/04/13 06:16:04;;;;;;;15.13;6.10;;;;;;;-142.91;100.00;56616.03;5018451;28;20749;-77
2022/04/13 06:18:31;;;;;;;7.75;6.03;;;;;;;-142.91;100.00;56616.03;5017997;28;20259;-74
2022/04/13 06:20:58;;;;;;;7.05;5.05;;;;;;;-142.91;100.00;56616.03;5018415;28;20208;-75
2022/04/13 06:23:24;;;;;;;7.55;5.60;;;;;;;-142.91;100.00;56616.03;5018547;28;20253;-73
2022/04/13 06:25:51;;;;;;;10.13;6.80;;;;;;;-142.91;100.00;56616.03;5018806;28;20204;-74
2022/04/13 06:28:18;;;;;;;10.80;6.60;;;;;;;-142.91;100.00;56616.03;5017727;28;20282;-74
2022/04/13 06:30:45;;;;;;;10.93;6.43;;;;;;;-142.91;100.00;56616.03;5017904;28;20257;-73
2022/04/13 06:33:13;;;;;;;11.38;9.25;;;;;;;-142.91;100.00;56616.03;5017642;28;21021;-77
2022/04/13 06:35:40;;;;;;;34.10;22.33;;;;;;;-142.91;100.00;56616.03;5018052;28;20210;-74
2022/04/13 06:38:07;;;;;;;13.63;9.30;;;;;;;-142.91;100.00;56616.03;5017964;28;20204;-73
2022/04/13 06:40:33;;;;;;;8.63;7.35;;;;;;;-142.91;100.00;56616.03;5018371;28;20203;-75
2022/04/13 06:43:00;;;;;;;13.48;7.80;;;;;;;-142.91;100.00;56616.03;5017545;28;20227;-74
2022/04/13 06:45:27;;;;;;;18.17;7.72;;;;;;;-142.91;100.00;56616.03;5017965;28;20199;-74
2022/04/13 06:47:54;;;;;;;8.23;7.47;;;;;;;-142.91;100.00;56616.03;5017321;28;20262;-74
2022/04/13 06:50:22;;;;;;;11.52;8.07;;;;;;;-142.91;100.00;56616.03;5017931;28;20250;-73
2022/04/13 06:52:48;;;;;;;13.65;8.40;;;;;;;-142.91;100.00;56616.03;5017205;28;20212;-72
2022/04/13 06:55:18;;;;;;;12.68;6.82;;;;;;;-142.91;100.00;56616.03;5017988;28;20885;-74
2022/04/13 06:57:45;;;;;;;16.63;7.50;;;;;;;-142.91;100.00;56616.03;5015685;28;20236;-73
2022/04/13 07:00:13;;;;;;;10.15;8.13;;;;;;;-142.91;100.00;56616.03;5016019;28;20816;-73
2022/04/13 07:02:41;;;;;;;15.35;7.82;;;;;;;-142.91;100.00;56616.03;5016428;28;20239;-73
2022/04/13 07:05:09;;;;;;;15.68;9.40;;;;;;;-142.91;100.00;56616.03;5016822;28;20215;-73
2022/04/13 07:07:37;;;;;;;12.43;8.40;;;;;;;-142.91;100.00;56616.03;5017505;28;20253;-71
2022/04/13 07:10:04;;;;;;;15.20;11.32;;;;;;;-142.91;100.00;56616.03;5017349;28;20212;-72
2022/04/13 07:12:35;;;;;;;18.50;9.27;;;;;;;-142.91;100.00;56616.03;5016831;28;20236;-71
2022/04/13 07:15:02;;;;;;;12.38;8.93;;;;;;;-142.91;100.00;56616.03;5016533;28;20683;-72
2022/04/13 07:17:28;;;;;;;15.80;8.75;;;;;;;-142.91;100.00;56616.03;5017280;28;20760;-74
2022/04/13 07:19:55;;;;;;;13.45;8.65;;;;;;;-142.91;100.00;56616.03;5017178;28;20203;-70
2022/04/13 07:22:23;;;;;;;9.23;8.05;;;;;;;-142.91;100.00;56616.03;5017674;28;20293;-72
2022/04/13 07:24:54;;;;;;;15.80;8.40;;;;;;;-142.91;100.00;56616.03;5016310;28;20287;-72
2022/04/13 07:27:21;;;;;;;11.05;8.20;;;;;;;-142.91;100.00;56616.03;5017442;28;20254;-71
2022/04/13 07:29:47;;;;;;;9.93;7.00;;;;;;;-142.91;100.00;56616.03;5016799;28;20204;-70
2022/04/13 07:32:14;;;;;;;8.25;7.35;;;;;;;-142.91;100.00;56616.03;5017022;28;20204;-71
2022/04/13 07:34:41;;;;;;;8.15;6.93;;;;;;;-142.91;100.00;56616.03;5016112;28;21059;-71
2022/04/13 07:37:07;;;;;;;12.52;6.95;;;;;;;-142.91;100.00;56616.03;5016586;28;20210;-72
2022/04/13 07:39:35;;;;;;;11.95;7.72;;;;;;;-142.91;100.00;56616.03;5016741;28;20305;-71
2022/04/13 07:42:03;;;;;;;11.65;7.40;;;;;;;-142.91;100.00;56616.03;5016234;28;20715;-70
2022/04/13 07:44:30;;;;;;;8.27;6.70;;;;;;;-142.91;100.00;56616.03;5017431;28;20203;-70
2022/04/13 07:46:57;;;;;;;15.82;8.43;;;;;;;-142.91;100.00;56616.03;5017115;28;20200;-70
2022/04/13 07:49:24;;;;;;;10.60;7.38;;;;;;;-142.91;100.00;56616.03;5014402;28;20200;-70
2022/04/13 07:51:51;;;;;;;9.85;7.20;;;;;;;-142.91;100.00;56616.03;5014009;28;20222;-71
2022/04/13 07:54:17;;;;;;;11.13;7.97;;;;;;;-142.91;100.00;56616.03;5012947;28;20683;-70
2022/04/13 07:56:44;;;;;;;11.68;6.72;;;;;;;-142.91;100.00;56616.03;5016843;28;20215;-70
2022/04/13 07:59:12;;;;;;;7.55;6.78;;;;;;;-142.91;100.00;56616.03;5013732;28;20196;-70
2022/04/13 08:01:39;;;;;;;8.55;7.25;;;;;;;-142.91;100.00;56616.03;5015618;28;20652;-72
2022/04/13 08:04:07;;;;;;;8.32;6.82;;;;;;;-142.91;100.00;56616.03;5016692;28;20258;-70
2022/04/13 08:06:33;;;;;;;8.02;6.47;;;;;;;-142.91;100.00;56616.03;5015827;28;20202;-70
2022/04/13 08:09:00;;;;;;;12.32;7.05;;;;;;;-142.91;100.00;56616.03;5016415;28;20207;-72
2022/04/13 08:11:27;;;;;;;9.80;6.72;;;;;;;-142.91;100.00;56616.03;5016316;28;20262;-70
2022/04/13 08:13:53;;;;;;;12.90;7.53;;;;;;;-142.91;100.00;56616.03;5016558;28;20235;-76
2022/04/13 08:16:22;;;;;;;13.35;7.63;;;;;;;-142.91;100.00;56616.03;5015754;28;20285;-74
2022/04/13 08:18:48;;;;;;;10.00;6.90;;;;;;;-142.91;100.00;56616.03;5013737;28;20289;-72
2022/04/13 08:21:15;;;;;;;9.90;5.85;;;;;;;-142.91;100.00;56616.03;5014509;28;20203;-74
2022/04/13 08:23:42;;;;;;;8.63;6.22;;;;;;;-142.91;100.00;56616.03;5011894;28;20544;-74
2022/04/13 08:26:09;;;;;;;8.45;6.22;;;;;;;-142.91;100.00;56616.03;5013096;28;20208;-71
2022/04/13 08:28:36;;;;;;;7.50;6.63;;;;;;;-142.91;100.00;56616.03;5013757;28;20196;-71
2022/04/13 08:31:04;;;;;;;5.63;5.22;;;;;;;-142.91;100.00;56616.03;5013520;28;20213;-70
2022/04/13 08:33:33;;;;;;;8.57;5.75;;;;;;;-142.91;100.00;56616.03;5013557;28;20311;-71
2022/04/13 08:35:59;;;;;;;4.68;4.28;;;;;;;-142.91;100.00;56616.03;5014481;28;20655;-71
2022/04/13 08:38:27;;;;;;;6.13;4.57;;;;;;;-142.91;100.00;56616.03;5014259;28;20273;-72
2022/04/13 08:40:58;;;;;;;6.38;4.72;;;;;;;-142.91;100.00;56616.03;5015654;28;20289;-71
2022/04/13 08:43:31;;;;;;;4.55;4.15;;;;;;;-142.91;100.00;56616.03;5015535;28;20285;-72
2022/04/13 08:46:00;;;;;;;3.42;3.17;;;;;;;-142.91;100.00;56616.03;5016036;28;20211;-72
2022/04/13 08:48:28;;;;;;;5.18;3.60;;;;;;;-142.91;100.00;56616.03;5013775;28;20284;-72
2022/04/13 08:50:59;;;;;;;4.60;3.85;;;;;;;-142.91;100.00;56616.03;5014617;28;20204;-71
2022/04/13 08:53:29;;;;;;;6.60;4.20;;;;;;;-142.91;100.00;56616.03;5013964;28;20196;-70
2022/04/13 08:55:58;;;;;;;7.07;4.80;;;;;;;-142.91;100.00;56616.03;5014442;28;20195;-71
2022/04/13 08:58:43;;;;;;;8.07;4.28;;;;;;;-142.91;100.00;56616.03;5014048;28;20261;-71
2022/04/13 09:01:17;;;;;;;6.38;3.85;;;;;;;-142.91;100.00;56616.03;5013886;28;20257;-70
2022/04/13 09:03:48;;;;;;;5.80;4.13;;;;;;;-142.91;100.00;56616.03;5012114;28;20644;-72
2022/04/13 09:06:16;;;;;;;4.53;4.10;;;;;;;-142.91;100.00;56616.03;5014150;28;20277;-71
2022/04/13 09:08:50;;;;;;;7.93;3.33;;;;;;;-142.91;100.00;56616.03;5011441;28;20227;-72
2022/04/13 09:11:21;;;;;;;4.20;3.67;;;;;;;-142.91;100.00;56616.03;5012992;28;20200;-71
2022/04/13 09:13:48;;;;;;;8.32;3.55;;;;;;;-142.91;100.00;56616.03;5016792;28;20227;-71
2022/04/13 09:16:15;;;;;;;8.93;3.70;;;;;;;-142.91;100.00;56616.03;5031193;28;20219;-72
2022/04/13 09:18:43;;;;;;;4.85;3.60;;;;;;;-142.91;100.00;56616.03;5017652;28;20203;-72
2022/04/13 09:21:12;;;;;;;5.88;4.10;;;;;;;-142.91;100.00;56616.03;5030581;28;20621;-72
2022/04/13 09:23:40;;;;;;;7.57;3.80;;;;;;;-142.91;100.00;56616.03;5027908;28;20231;-72
2022/04/13 09:26:08;;;;;;;4.88;4.32;;;;;;;-142.91;100.00;56616.03;5012073;28;20253;-70
2022/04/13 09:28:37;;;;;;;4.13;3.70;;;;;;;-142.91;100.00;56616.03;5017973;28;20205;-71
2022/04/13 09:31:04;;;;;;;10.20;5.40;;;;;;;-142.91;100.00;56616.03;5010069;28;20259;-71
2022/04/13 09:33:30;;;;;;;6.07;3.80;;;;;;;-142.91;100.00;56616.03;5009705;28;20258;-71
2022/04/13 09:35:57;;;;;;;5.90;3.67;;;;;;;-142.91;100.00;56616.03;5008834;28;20240;-70
2022/04/13 09:38:26;;;;;;;4.47;4.07;;;;;;;-142.91;100.00;56616.03;5007807;28;20278;-71
2022/04/13 09:40:54;;;;;;;3.60;3.40;;;;;;;-142.91;100.00;56616.03;5007969;28;20189;-73
2022/04/13 09:43:23;;;;;;;4.45;3.50;;;;;;;-142.91;100.00;56616.03;5009563;28;20234;-72
2022/04/13 09:45:50;;;;;;;5.53;3.50;;;;;;;-142.91;100.00;56616.03;5010740;28;20283;-72
2022/04/13 09:48:19;;;;;;;4.32;3.28;;;;;;;-142.91;100.00;56616.03;5010821;28;20200;-73
2022/04/13 09:50:47;;;;;;;7.22;5.57;;;;;;;-142.91;100.00;56616.03;5010238;28;20570;-71
2022/04/13 09:53:15;;;;;;;6.57;4.90;;;;;;;-142.91;100.00;56616.03;5011565;28;20204;-71
2022/04/13 09:55:44;;;;;;;5.85;3.65;;;;;;;-142.91;100.00;56616.03;5011953;28;20193;-71
2022/04/13 09:58:13;;;;;;;4.57;2.72;;;;;;;-142.91;100.00;56616.03;5011416;28;20616;-71
2022/04/13 10:00:43;;;;;;;6.85;3.83;;;;;;;-142.91;100.00;56616.03;5011900;28;20197;-71
2022/04/13 10:03:12;;;;;;;3.58;3.28;;;;;;;-142.91;100.00;56616.03;5011305;28;20231;-71
2022/04/13 10:05:42;;;;;;;4.40;4.00;;;;;;;-142.91;100.00;56616.03;5011951;28;20197;-71
2022/04/13 10:08:11;;;;;;;3.05;2.85;;;;;;;-142.91;100.00;56616.03;5011409;28;20573;-71
2022/04/13 10:10:42;;;;;;;7.05;5.22;;;;;;;-142.91;100.00;56616.03;5011890;28;20204;-71
2022/04/13 10:13:09;;;;;;;8.60;4.30;;;;;;;-142.91;100.00;56616.03;5011600;28;20235;-71
2022/04/13 10:15:38;;;;;;;4.47;3.90;;;;;;;-142.91;100.00;56616.03;5011507;28;20262;-70
2022/04/13 10:18:05;;;;;;;4.65;3.20;;;;;;;-142.91;100.00;56616.03;5011860;28;20634;-71
2022/04/13 10:20:45;;;;;;;3.42;3.13;;;;;;;-142.91;100.00;56616.03;5011758;28;20197;-71
2022/04/13 10:23:12;;;;;;;3.60;3.30;;;;;;;-142.91;100.00;56616.03;5010333;28;20224;-71
2022/04/13 10:25:40;;;;;;;2.67;2.55;;;;;;;-142.91;100.00;56616.03;5010702;28;20197;-71
2022/04/13 10:28:07;;;;;;;3.08;2.88;;;;;;;-142.91;100.00;56616.03;5030963;28;20265;-71
2022/04/13 10:30:38;;;;;;;5.25;2.95;;;;;;;-142.91;100.00;56616.03;5030859;28;20302;-71
2022/04/13 10:33:06;;;;;;;3.17;2.92;;;;;;;-142.91;100.00;56616.03;5011251;28;20291;-72
2022/04/13 10:35:34;;;;;;;4.38;2.83;;;;;;;-142.91;100.00;56616.03;5011299;28;20287;-71
2022/04/13 10:38:03;;;;;;;4.07;3.72;;;;;;;-142.91;100.00;56616.03;5029425;28;20629;-71
2022/04/13 10:40:31;;;;;;;4.40;2.70;;;;;;;-142.91;100.00;56616.03;5030815;28;20200;-71
2022/04/13 10:43:01;;;;;;;4.43;2.85;;;;;;;-142.91;100.00;56616.03;5029441;28;20228;-71
2022/04/13 10:45:29;;;;;;;4.45;2.80;;;;;;;-142.91;100.00;56616.03;5030870;28;20709;-71
2022/04/13 10:48:01;;;;;;;3.63;3.05;;;;;;;-142.91;100.00;56616.03;5011868;28;20270;-71
2022/04/13 10:50:44;;;;;;;4.30;4.00;;;;;;;-142.91;100.00;56616.03;5011378;28;20204;-73
2022/04/13 10:53:20;;;;;;;2.70;2.50;;;;;;;-142.91;100.00;56616.03;5010876;28;20209;-73
2022/04/13 10:55:57;;;;;;;3.53;2.78;;;;;;;-142.91;100.00;56616.03;5011324;28;20243;-72
2022/04/13 10:58:35;;;;;;;4.20;2.97;;;;;;;-142.91;100.00;56616.03;5011344;28;20193;-71
2022/04/13 11:01:05;;;;;;;10.07;6.55;;;;;;;-142.91;100.00;56616.03;5011043;28;20204;-73
2022/04/13 11:03:36;;;;;;;3.20;3.00;;;;;;;-142.91;100.00;56616.03;5010680;28;20228;-71
2022/04/13 11:06:05;;;;;;;5.47;3.80;;;;;;;-142.91;100.00;56616.03;5010619;28;20228;-71
2022/04/13 11:08:38;;;;;;;3.97;3.22;;;;;;;-142.91;100.00;56616.03;5010946;28;20270;-72
2022/04/13 11:11:06;;;;;;;5.90;3.28;;;;;;;-142.91;100.00;56616.03;5011541;28;20539;-73